Time;durP1;ratioP1;P1;durP2;ratioP2;P2;SDS_P1;SDS_P2;PMS_P1;PMS_P2;Temp;Humidity;BMP_temperature;BMP_pressure;BME280_temperature;BME280_humidity;BME280_pressure;Samples;Min_cycle;Max_cycle;Signal;HPM_P1;HPM_P2
2021/05/18 00:00:34;;;;;;;12.60;8.98;;;12.20;99.90;;;;;;2064100;28;20069;-69
2021/05/18 00:01:34;;;;;;;12.50;8.35;;;12.10;99.90;;;;;;2064084;28;20900;-68
2021/05/18 00:02:35;;;;;;;14.20;9.32;;;12.10;99.90;;;;;;2063669;28;20019;-68
2021/05/18 00:03:36;;;;;;;11.50;8.57;;;12.10;99.90;;;;;;2063792;28;20026;-68
2021/05/18 00:04:36;;;;;;;16.55;8.82;;;12.10;99.90;;;;;;2064180;28;20367;-68
2021/05/18 00:05:41;;;;;;;13.43;7.95;;;12.10;99.90;;;;;;2064163;28;20030;-68
2021/05/18 00:06:42;;;;;;;13.40;8.68;;;12.10;99.90;;;;;;2064302;28;20026;-68
2021/05/18 00:07:54;;;;;;;15.27;7.88;;;12.00;99.90;;;;;;2064090;28;20042;-68
2021/05/18 00:11:46;;;;;;;10.05;7.30;;;11.90;99.90;;;;;;2064060;28;20027;-68
2021/05/18 00:12:47;;;;;;;12.00;7.93;;;11.90;99.90;;;;;;2063723;28;20026;-68
2021/05/18 00:13:50;;;;;;;14.80;8.00;;;11.90;99.90;;;;;;2063868;28;20026;-68
2021/05/18 00:14:51;;;;;;;9.75;7.10;;;11.90;99.90;;;;;;2063059;28;20023;-68
2021/05/18 00:15:55;;;;;;;14.32;8.45;;;11.90;99.90;;;;;;2063794;28;20050;-68
2021/05/18 00:16:55;;;;;;;15.45;9.02;;;11.90;99.90;;;;;;2064187;28;20379;-68
2021/05/18 00:17:56;;;;;;;12.70;8.82;;;11.90;99.90;;;;;;2064205;28;20069;-68
2021/05/18 00:18:57;;;;;;;10.60;8.05;;;11.90;99.90;;;;;;2064234;28;20101;-68
2021/05/18 00:19:57;;;;;;;17.67;9.40;;;11.90;99.90;;;;;;2063966;28;20141;-68
2021/05/18 00:20:58;;;;;;;13.98;9.73;;;11.90;99.90;;;;;;2063873;28;20797;-68
2021/05/18 00:21:59;;;;;;;10.75;7.88;;;11.90;99.90;;;;;;2063890;28;20030;-68
2021/05/18 00:22:59;;;;;;;13.20;9.98;;;11.90;99.90;;;;;;2063658;28;20115;-68
2021/05/18 00:24:00;;;;;;;13.25;9.15;;;11.90;99.90;;;;;;2064057;28;20022;-68
2021/05/18 00:25:01;;;;;;;14.18;9.90;;;11.90;99.90;;;;;;2064541;28;20061;-68
2021/05/18 00:26:02;;;;;;;16.73;10.43;;;11.90;99.90;;;;;;2063628;28;20026;-68
2021/05/18 00:27:04;;;;;;;15.18;10.13;;;11.90;99.90;;;;;;2064258;28;20041;-68
2021/05/18 00:28:04;;;;;;;17.35;11.32;;;11.90;99.90;;;;;;2063646;28;20038;-68
2021/05/18 00:29:08;;;;;;;19.15;10.35;;;11.90;99.90;;;;;;2064309;28;20054;-68
2021/05/18 00:30:10;;;;;;;15.52;10.32;;;12.00;99.90;;;;;;2063949;28;20030;-68
2021/05/18 00:31:11;;;;;;;17.02;11.00;;;12.00;99.90;;;;;;2064122;28;20030;-68
2021/05/18 00:32:11;;;;;;;20.85;10.50;;;12.00;99.90;;;;;;2063475;28;20034;-68
2021/05/18 00:33:18;;;;;;;16.25;9.77;;;12.00;99.90;;;;;;2063838;28;20022;-68
2021/05/18 00:34:19;;;;;;;15.20;10.52;;;12.00;99.90;;;;;;2063647;28;20027;-68
2021/05/18 00:35:20;;;;;;;14.43;9.75;;;12.00;99.90;;;;;;2063988;28;20030;-68
2021/05/18 00:36:21;;;;;;;13.43;10.13;;;12.00;99.90;;;;;;2063770;28;20125;-68
2021/05/18 00:37:23;;;;;;;16.38;10.68;;;12.00;99.90;;;;;;2063823;28;20049;-68
2021/05/18 00:38:24;;;;;;;11.80;9.40;;;12.00;99.90;;;;;;2063992;28;20525;-68
2021/05/18 00:39:24;;;;;;;18.23;11.07;;;12.00;99.90;;;;;;2062927;28;20335;-68
2021/05/18 00:40:25;;;;;;;13.65;9.68;;;12.00;99.90;;;;;;2063606;28;20023;-68
2021/05/18 00:41:26;;;;;;;16.60;9.98;;;12.00;99.90;;;;;;2064094;28;20390;-68
2021/05/18 00:42:26;;;;;;;21.50;10.57;;;12.00;99.90;;;;;;2063344;28;20041;-68
2021/05/18 00:43:27;;;;;;;15.52;10.65;;;12.00;99.90;;;;;;2063804;28;20026;-68
2021/05/18 00:44:28;;;;;;;14.00;11.10;;;12.00;99.90;;;;;;2064293;28;20116;-68
2021/05/18 00:45:37;;;;;;;18.42;11.60;;;12.00;99.90;;;;;;2063725;28;20034;-68
2021/05/18 00:46:38;;;;;;;13.98;10.60;;;12.00;99.90;;;;;;2064008;28;20038;-68
2021/05/18 00:47:39;;;;;;;16.02;11.45;;;12.00;99.90;;;;;;2063669;28;20080;-68
2021/05/18 00:48:39;;;;;;;15.73;10.77;;;12.10;99.90;;;;;;2064062;28;20026;-68
2021/05/18 00:49:40;;;;;;;17.42;11.73;;;12.10;99.90;;;;;;2063665;28;20068;-68
2021/05/18 00:50:43;;;;;;;17.08;11.15;;;12.10;99.90;;;;;;2063684;28;20089;-68
2021/05/18 00:51:44;;;;;;;19.98;11.70;;;12.10;99.90;;;;;;2063513;28;20402;-68
2021/05/18 00:52:45;;;;;;;17.45;10.88;;;12.10;99.90;;;;;;2063607;28;20093;-68
2021/05/18 00:53:45;;;;;;;17.80;10.75;;;12.10;99.90;;;;;;2070785;28;20048;-68
2021/05/18 00:54:56;;;;;;;14.50;11.50;;;12.10;99.90;;;;;;2071374;28;20097;-68
2021/05/18 00:56:01;;;;;;;;;;;12.10;99.90;;;;;;2064360;28;20411;-68
2021/05/18 00:58:27;;;;;;;22.17;13.23;;;12.00;99.90;;;;;;2064247;28;20030;-68
2021/05/18 00:59:28;;;;;;;18.08;12.15;;;12.00;99.90;;;;;;2063657;28;20069;-68
2021/05/18 01:00:29;;;;;;;16.92;12.20;;;12.10;99.90;;;;;;2064285;28;20199;-68
2021/05/18 01:01:30;;;;;;;21.45;12.20;;;12.10;99.90;;;;;;2063840;28;20036;-68
2021/05/18 01:02:31;;;;;;;17.10;10.77;;;12.10;99.90;;;;;;2063556;28;20028;-68
2021/05/18 01:03:33;;;;;;;18.63;12.85;;;12.10;99.90;;;;;;2063446;28;20041;-68
2021/05/18 01:04:39;;;;;;;21.55;12.73;;;12.10;99.90;;;;;;2063592;28;20018;-68
2021/05/18 01:06:59;;;;;;;21.20;11.90;;;12.20;99.90;;;;;;2064001;28;20034;-68
2021/05/18 01:08:02;;;;;;;17.00;11.40;;;12.10;99.90;;;;;;2063873;28;20018;-68
2021/05/18 01:09:13;;;;;;;22.33;13.25;;;12.10;99.90;;;;;;2063790;28;20010;-68
2021/05/18 01:10:15;;;;;;;18.15;12.38;;;12.20;99.90;;;;;;2063935;28;20026;-68
2021/05/18 01:11:19;;;;;;;25.25;13.15;;;12.20;99.90;;;;;;2064044;28;20106;-68
2021/05/18 01:12:20;;;;;;;20.25;12.50;;;12.20;99.90;;;;;;2063249;28;20061;-68
2021/05/18 01:13:21;;;;;;;21.63;12.52;;;12.20;99.90;;;;;;2063826;28;20068;-68
2021/05/18 01:14:21;;;;;;;20.10;12.95;;;12.20;99.90;;;;;;2063363;28;20061;-68
2021/05/18 01:15:22;;;;;;;21.70;13.18;;;12.20;99.90;;;;;;2063879;28;20018;-68
2021/05/18 01:16:25;;;;;;;14.45;10.45;;;12.20;99.90;;;;;;2063535;28;20034;-68
2021/05/18 01:17:26;;;;;;;19.45;11.98;;;12.20;99.90;;;;;;2058152;28;20026;-68
2021/05/18 01:18:27;;;;;;;21.05;11.80;;;12.20;99.90;;;;;;2067036;28;20030;-68
2021/05/18 01:19:28;;;;;;;18.95;11.52;;;12.20;99.90;;;;;;2064731;28;20061;-68
2021/05/18 01:20:28;;;;;;;19.83;12.90;;;12.20;99.90;;;;;;2069517;28;20026;-68
2021/05/18 01:21:30;;;;;;;22.70;12.48;;;12.20;99.90;;;;;;2064523;28;20367;-68
2021/05/18 01:22:30;;;;;;;16.48;11.60;;;12.20;99.90;;;;;;2063242;28;20042;-68
2021/05/18 01:23:31;;;;;;;21.55;13.00;;;12.20;99.90;;;;;;2063740;28;20260;-68
2021/05/18 01:24:33;;;;;;;19.80;12.05;;;12.30;99.90;;;;;;2063757;28;20029;-68
2021/05/18 01:25:34;;;;;;;21.15;13.05;;;12.20;99.90;;;;;;2063057;28;20157;-68
2021/05/18 01:26:36;;;;;;;17.73;11.70;;;12.30;99.90;;;;;;2063203;28;20069;-68
2021/05/18 01:27:38;;;;;;;16.48;12.45;;;12.20;99.90;;;;;;2065577;28;20108;-68
2021/05/18 01:28:39;;;;;;;16.92;11.90;;;12.30;99.90;;;;;;2065959;28;20022;-68
2021/05/18 01:29:39;;;;;;;20.77;13.65;;;12.30;99.90;;;;;;2063068;28;20504;-68
2021/05/18 01:30:40;;;;;;;18.55;13.82;;;12.30;99.90;;;;;;2063404;28;20371;-68
2021/05/18 01:31:42;;;;;;;18.88;13.80;;;12.30;99.90;;;;;;2063751;28;20026;-69
2021/05/18 01:32:43;;;;;;;21.40;13.75;;;12.30;99.90;;;;;;2062598;28;20037;-68
2021/05/18 01:33:43;;;;;;;23.38;14.57;;;12.30;99.90;;;;;;2063418;28;20560;-68
2021/05/18 01:34:44;;;;;;;22.20;13.40;;;12.30;99.90;;;;;;2063097;28;20026;-68
2021/05/18 01:35:45;;;;;;;18.58;13.13;;;12.30;99.90;;;;;;2063789;28;20050;-68
2021/05/18 01:36:47;;;;;;;19.83;13.23;;;12.30;99.90;;;;;;2063347;28;20109;-68
2021/05/18 01:37:49;;;;;;;21.33;13.85;;;12.30;99.90;;;;;;2063494;28;20127;-68
2021/05/18 01:42:49;;;;;;;21.55;13.88;;;12.30;99.90;;;;;;2063069;28;20444;-68
2021/05/18 01:43:54;;;;;;;16.77;11.88;;;12.30;99.90;;;;;;2063392;28;20181;-68
2021/05/18 01:44:55;;;;;;;25.10;13.82;;;12.30;99.90;;;;;;2063483;28;20129;-68
2021/05/18 01:45:56;;;;;;;16.38;11.65;;;12.30;99.90;;;;;;2063779;28;20026;-68
2021/05/18 01:46:56;;;;;;;17.40;11.65;;;12.30;99.90;;;;;;2063386;28;20023;-68
2021/05/18 01:48:11;;;;;;;17.92;12.60;;;12.30;99.90;;;;;;2063442;28;20025;-68
2021/05/18 01:49:16;;;;;;;16.55;12.75;;;12.30;99.90;;;;;;2055307;28;20546;-68
2021/05/18 01:50:18;;;;;;;21.73;12.90;;;12.30;99.90;;;;;;2059045;28;20033;-68
2021/05/18 01:51:18;;;;;;;21.30;13.65;;;12.30;99.90;;;;;;2063546;28;20018;-68
2021/05/18 01:52:19;;;;;;;19.10;12.95;;;12.30;99.90;;;;;;2062775;28;20034;-68
2021/05/18 01:53:21;;;;;;;21.00;13.75;;;12.30;99.90;;;;;;2062914;28;20084;-68
2021/05/18 01:54:26;;;;;;;24.42;14.25;;;12.30;99.90;;;;;;2063326;28;20030;-68
2021/05/18 01:57:49;;;;;;;20.17;12.95;;;12.30;99.90;;;;;;2063370;28;20034;-68
2021/05/18 01:58:50;;;;;;;18.92;13.43;;;12.30;99.90;;;;;;2063333;28;20371;-68
2021/05/18 01:59:51;;;;;;;19.35;13.40;;;12.30;99.90;;;;;;2063114;28;20068;-68
2021/05/18 02:00:52;;;;;;;16.85;11.13;;;12.30;99.90;;;;;;2064249;28;20061;-68
2021/05/18 02:01:58;;;;;;;19.48;11.23;;;12.30;99.90;;;;;;2064434;28;20025;-68
2021/05/18 02:03:00;;;;;;;28.55;13.50;;;12.30;99.90;;;;;;2064134;28;20023;-68
2021/05/18 02:04:03;;;;;;;21.23;12.80;;;12.30;99.90;;;;;;2064401;28;20085;-68
2021/05/18 02:05:08;;;;;;;21.35;12.75;;;12.30;99.90;;;;;;2064677;28;20029;-68
2021/05/18 02:06:09;;;;;;;21.60;13.98;;;12.30;99.90;;;;;;2064655;28;20569;-68
2021/05/18 02:07:24;;;;;;;20.75;12.80;;;12.30;99.90;;;;;;2064576;28;20379;-68
2021/05/18 02:08:25;;;;;;;18.20;12.30;;;12.30;99.90;;;;;;2064354;28;20034;-68
2021/05/18 02:09:26;;;;;;;23.50;13.32;;;12.30;99.90;;;;;;2064613;28;20082;-68
2021/05/18 02:10:27;;;;;;;17.52;13.43;;;12.30;99.90;;;;;;2064688;28;20085;-68
2021/05/18 02:11:30;;;;;;;19.73;11.77;;;12.30;99.90;;;;;;2064421;28;20367;-68
2021/05/18 02:12:31;;;;;;;25.00;13.45;;;12.30;99.90;;;;;;2064085;28;20026;-68
2021/05/18 02:13:31;;;;;;;18.60;13.52;;;12.30;99.90;;;;;;2064619;28;20032;-68
2021/05/18 02:14:34;;;;;;;22.25;13.18;;;12.30;99.90;;;;;;2064451;28;20038;-68
2021/05/18 02:15:50;;;;;;;21.92;13.80;;;12.30;99.90;;;;;;2064348;28;20034;-68
2021/05/18 02:16:55;;;;;;;21.77;13.70;;;12.30;99.90;;;;;;2065025;28;20042;-68
2021/05/18 02:19:39;;;;;;;18.77;12.88;;;12.20;99.90;;;;;;2062898;28;20398;-68
2021/05/18 02:20:44;;;;;;;25.23;13.52;;;12.20;99.90;;;;;;2064432;28;20045;-69
2021/05/18 02:22:08;;;;;;;24.30;13.90;;;12.20;99.90;;;;;;2064801;28;20072;-69
2021/05/18 02:25:47;;;;;;;19.02;14.25;;;12.20;99.90;;;;;;2064520;28;20453;-68
2021/05/18 02:26:47;;;;;;;29.45;13.82;;;12.20;99.90;;;;;;2064420;28;20050;-68
2021/05/18 02:27:49;;;;;;;19.50;13.48;;;12.20;99.90;;;;;;2064395;28;20114;-68
2021/05/18 02:28:50;;;;;;;23.80;13.38;;;12.20;99.90;;;;;;2064313;28;20037;-68
2021/05/18 02:29:50;;;;;;;21.63;13.68;;;12.20;99.90;;;;;;2064662;28;20027;-68
2021/05/18 02:30:51;;;;;;;24.48;14.00;;;12.20;99.90;;;;;;2064389;28;20022;-68
2021/05/18 02:31:54;;;;;;;18.20;13.65;;;12.30;99.90;;;;;;2064608;28;20033;-68
2021/05/18 02:32:55;;;;;;;20.90;13.55;;;12.30;99.90;;;;;;2063908;28;20489;-68
2021/05/18 02:33:56;;;;;;;22.45;14.15;;;12.30;99.90;;;;;;2064441;28;20042;-68
2021/05/18 02:34:56;;;;;;;22.73;14.23;;;12.20;99.90;;;;;;2064342;28;20027;-68
2021/05/18 02:35:57;;;;;;;24.13;13.48;;;12.20;99.90;;;;;;2064336;28;20029;-68
2021/05/18 02:36:58;;;;;;;24.60;13.88;;;12.20;99.90;;;;;;2064373;28;20022;-68
2021/05/18 02:37:59;;;;;;;21.85;13.27;;;12.20;99.90;;;;;;2064022;28;20355;-68
2021/05/18 02:39:00;;;;;;;20.45;12.60;;;12.30;99.90;;;;;;2064065;28;20478;-68
2021/05/18 02:40:00;;;;;;;19.10;13.10;;;12.30;99.90;;;;;;2064329;28;20355;-68
2021/05/18 02:41:01;;;;;;;21.27;12.73;;;12.30;99.90;;;;;;2064341;28;20033;-68
2021/05/18 02:42:02;;;;;;;21.13;13.40;;;12.30;99.90;;;;;;2064437;28;20470;-69
2021/05/18 02:43:03;;;;;;;23.75;12.60;;;12.30;99.90;;;;;;2063868;28;20466;-68
2021/05/18 02:45:56;;;;;;;19.27;12.13;;;12.30;99.90;;;;;;2047234;29;20483;-68
2021/05/18 02:49:34;;;;;;;24.75;13.55;;;12.20;99.90;;;;;;2064241;28;20046;-68
2021/05/18 02:50:35;;;;;;;19.50;13.10;;;12.20;99.90;;;;;;2064394;28;20030;-68
2021/05/18 02:51:42;;;;;;;19.05;13.13;;;12.10;99.90;;;;;;2064185;28;20023;-68
2021/05/18 02:52:43;;;;;;;20.90;12.48;;;12.20;99.90;;;;;;2063792;28;20037;-68
2021/05/18 02:53:44;;;;;;;21.75;13.77;;;12.20;99.90;;;;;;2063985;28;20026;-68
2021/05/18 02:54:49;;;;;;;19.20;12.88;;;12.20;99.90;;;;;;2064464;28;20049;-68
2021/05/18 02:56:04;;;;;;;25.05;13.02;;;12.20;99.90;;;;;;2064321;28;20026;-68
2021/05/18 02:57:08;;;;;;;21.13;13.23;;;12.20;99.90;;;;;;2064358;28;20026;-68
2021/05/18 02:58:11;;;;;;;18.67;12.60;;;12.20;99.90;;;;;;2063939;28;20045;-68
2021/05/18 02:59:16;;;;;;;19.10;12.40;;;12.20;99.90;;;;;;2064439;28;20120;-68
2021/05/18 03:00:19;;;;;;;22.25;13.15;;;12.20;99.90;;;;;;2064078;28;20034;-68
2021/05/18 03:01:20;;;;;;;22.55;13.65;;;12.20;99.90;;;;;;2064303;28;20085;-68
2021/05/18 03:02:20;;;;;;;20.58;12.93;;;12.20;99.90;;;;;;2062280;28;20072;-68
2021/05/18 03:03:21;;;;;;;21.40;13.00;;;12.20;99.90;;;;;;2062788;28;20077;-68
2021/05/18 03:04:22;;;;;;;18.45;11.90;;;12.20;99.90;;;;;;2062827;28;20454;-68
2021/05/18 03:05:25;;;;;;;21.20;13.07;;;12.20;99.90;;;;;;2063236;28;20026;-68
2021/05/18 03:06:25;;;;;;;19.73;12.73;;;12.20;99.90;;;;;;2062885;28;20034;-68
2021/05/18 03:07:26;;;;;;;19.38;11.30;;;12.20;99.90;;;;;;2063472;28;20092;-68
2021/05/18 03:08:26;;;;;;;18.45;12.65;;;12.30;99.90;;;;;;2063115;28;20501;-68
2021/05/18 03:09:27;;;;;;;19.13;12.55;;;12.30;99.90;;;;;;2063366;28;20030;-68
2021/05/18 03:10:28;;;;;;;23.20;12.43;;;12.30;99.90;;;;;;2062991;28;20062;-68
2021/05/18 03:11:28;;;;;;;20.98;12.45;;;12.30;99.90;;;;;;2062474;28;20470;-68
2021/05/18 03:12:29;;;;;;;16.98;13.10;;;12.30;99.90;;;;;;2062098;28;20033;-68
2021/05/18 03:13:30;;;;;;;18.65;12.90;;;12.30;99.90;;;;;;2062775;28;20482;-68
2021/05/18 03:14:31;;;;;;;20.90;14.10;;;12.30;99.90;;;;;;2062797;28;20137;-68
2021/05/18 03:15:32;;;;;;;21.58;12.98;;;12.30;99.90;;;;;;2063100;28;20425;-68
2021/05/18 03:16:37;;;;;;;21.40;13.40;;;12.30;99.90;;;;;;2062744;28;20030;-69
2021/05/18 03:17:38;;;;;;;18.25;12.50;;;12.40;99.90;;;;;;2062281;28;20105;-68
2021/05/18 03:18:39;;;;;;;20.77;14.70;;;12.40;99.90;;;;;;2069781;28;20041;-68
2021/05/18 03:19:39;;;;;;;23.42;13.57;;;12.30;99.90;;;;;;2063950;28;20085;-68
2021/05/18 03:20:40;;;;;;;17.80;12.07;;;12.40;99.90;;;;;;2069250;28;20370;-68
2021/05/18 03:21:43;;;;;;;19.42;12.68;;;12.30;99.90;;;;;;2063080;28;20066;-68
2021/05/18 03:22:44;;;;;;;20.27;13.88;;;12.30;99.90;;;;;;2062314;28;20122;-68
2021/05/18 03:23:45;;;;;;;16.45;12.65;;;12.40;99.90;;;;;;2063126;28;20036;-68
2021/05/18 03:24:45;;;;;;;18.95;13.77;;;12.40;99.90;;;;;;2062420;28;20068;-68
2021/05/18 03:25:46;;;;;;;18.92;14.00;;;12.30;99.90;;;;;;2061990;28;20026;-68
2021/05/18 03:26:48;;;;;;;22.33;13.25;;;12.40;99.90;;;;;;2070784;28;20120;-68
2021/05/18 03:27:49;;;;;;;17.83;13.35;;;12.40;99.90;;;;;;2060995;28;20029;-68
2021/05/18 03:28:57;;;;;;;17.60;13.18;;;12.40;99.90;;;;;;2070036;28;20026;-68
2021/05/18 03:30:00;;;;;;;17.58;13.02;;;12.30;99.90;;;;;;2063092;28;20046;-68
2021/05/18 03:34:40;;;;;;;16.15;13.02;;;12.30;99.90;;;;;;2062818;28;20043;-68
2021/05/18 03:35:41;;;;;;;17.08;15.07;;;12.30;99.90;;;;;;2062492;28;20022;-68
2021/05/18 03:36:42;;;;;;;20.40;14.52;;;12.40;99.90;;;;;;2062827;28;20122;-68
2021/05/18 03:37:53;;;;;;;18.50;13.82;;;12.30;99.90;;;;;;2062514;28;20031;-68
2021/05/18 03:38:57;;;;;;;18.70;14.18;;;12.30;99.90;;;;;;2062327;28;20518;-68
2021/05/18 03:40:05;;;;;;;21.38;14.90;;;12.30;99.90;;;;;;2063049;28;20109;-68
2021/05/18 03:41:11;;;;;;;20.52;14.57;;;12.30;99.90;;;;;;2062866;28;20015;-68
2021/05/18 03:42:17;;;;;;;18.95;14.15;;;12.30;99.90;;;;;;2069987;28;20441;-68
2021/05/18 03:44:43;;;;;;;19.23;14.45;;;12.30;99.90;;;;;;2062739;28;20074;-68
2021/05/18 03:45:50;;;;;;;22.40;15.77;;;12.30;99.90;;;;;;2062737;28;20113;-68
2021/05/18 03:53:34;;;;;;;18.40;16.13;;;12.30;99.90;;;;;;2064049;28;20031;-68
2021/05/18 03:54:50;;;;;;;18.77;15.93;;;12.30;99.90;;;;;;2064772;28;20470;-68
2021/05/18 03:59:09;;;;;;;16.83;14.82;;;12.40;99.90;;;;;;2064065;28;20026;-68
2021/05/18 04:02:48;;;;;;;20.30;16.65;;;12.30;99.90;;;;;;2063368;28;20027;-68
2021/05/18 04:03:51;;;;;;;16.52;14.70;;;12.40;99.90;;;;;;2064242;28;20390;-68
2021/05/18 04:04:56;;;;;;;21.75;17.23;;;12.30;99.90;;;;;;2064081;28;20382;-68
2021/05/18 04:17:09;;;;;;;17.95;15.40;;;12.40;99.90;;;;;;2054661;28;20063;-68
2021/05/18 04:18:18;;;;;;;20.52;16.77;;;12.30;99.90;;;;;;2061403;28;20038;-68
2021/05/18 04:19:22;;;;;;;18.30;16.27;;;12.40;99.90;;;;;;2064041;28;20045;-68
2021/05/18 04:20:38;;;;;;;20.20;15.50;;;12.40;99.90;;;;;;2063855;28;20434;-68
2021/05/18 04:24:16;;;;;;;19.45;16.67;;;12.40;99.90;;;;;;2064132;28;20054;-68
2021/05/18 04:41:37;;;;;;;19.17;17.13;;;12.50;99.90;;;;;;2064078;28;20429;-68
2021/05/18 04:50:50;;;;;;;20.60;16.98;;;12.50;99.90;;;;;;2064470;28;20034;-68
2021/05/18 04:51:57;;;;;;;19.23;16.77;;;12.50;99.90;;;;;;2063680;28;20030;-68
2021/05/18 04:59:02;;;;;;;20.08;17.10;;;12.60;99.90;;;;;;2063504;28;20153;-68
2021/05/18 05:00:10;;;;;;;19.63;17.52;;;12.60;99.90;;;;;;2064203;28;20052;-68
2021/05/18 05:01:16;;;;;;;18.70;16.73;;;12.60;99.90;;;;;;2063160;28;20022;-68
2021/05/18 05:06:59;;;;;;;19.52;17.55;;;12.70;99.90;;;;;;2063768;28;20067;-68
2021/05/18 05:09:18;;;;;;;17.38;15.65;;;12.70;99.90;;;;;;2063428;28;20062;-68
2021/05/18 05:10:27;;;;;;;18.52;16.48;;;12.70;99.90;;;;;;2064180;28;20049;-68
2021/05/18 05:14:17;;;;;;;18.45;16.17;;;12.70;99.90;;;;;;2063910;28;20105;-68
2021/05/18 05:15:18;;;;;;;19.63;16.33;;;12.70;99.90;;;;;;2063705;28;20040;-68
2021/05/18 05:16:18;;;;;;;18.45;15.95;;;12.80;99.90;;;;;;2063660;28;20023;-68
2021/05/18 05:17:19;;;;;;;19.42;16.52;;;12.80;99.90;;;;;;2063132;28;20113;-68
2021/05/18 05:18:19;;;;;;;18.38;16.13;;;12.80;99.90;;;;;;2063758;28;20106;-68
2021/05/18 05:19:21;;;;;;;17.05;15.30;;;12.80;99.90;;;;;;2063531;28;20475;-68
2021/05/18 05:20:21;;;;;;;17.20;15.20;;;12.90;99.90;;;;;;2064003;28;20072;-68
2021/05/18 05:21:28;;;;;;;17.27;15.40;;;12.90;99.90;;;;;;2063316;28;20080;-68
2021/05/18 05:22:29;;;;;;;18.00;16.30;;;12.90;99.90;;;;;;2070825;28;20496;-68
2021/05/18 05:23:29;;;;;;;17.42;15.63;;;12.90;99.90;;;;;;2071144;28;20417;-68
2021/05/18 05:24:31;;;;;;;18.13;16.02;;;12.90;99.90;;;;;;2075851;28;20030;-68
2021/05/18 05:25:31;;;;;;;17.77;14.40;;;12.90;99.90;;;;;;2063428;28;20026;-68
2021/05/18 05:26:34;;;;;;;17.55;14.65;;;12.90;99.90;;;;;;2063674;28;20026;-68
2021/05/18 05:27:35;;;;;;;15.40;13.73;;;12.90;99.90;;;;;;2063473;28;20030;-68
2021/05/18 05:28:35;;;;;;;15.75;14.07;;;12.90;99.90;;;;;;2063511;28;20022;-68
2021/05/18 05:29:36;;;;;;;14.10;12.70;;;12.90;99.90;;;;;;2063274;28;20030;-68
2021/05/18 05:30:37;;;;;;;15.43;13.70;;;13.00;99.90;;;;;;2063632;28;20127;-68
2021/05/18 05:31:39;;;;;;;17.83;13.98;;;13.00;99.90;;;;;;2063393;28;20034;-68
2021/05/18 05:32:39;;;;;;;15.52;13.88;;;13.00;99.90;;;;;;2063294;28;20120;-68
2021/05/18 05:33:40;;;;;;;15.48;13.75;;;13.00;99.90;;;;;;2063326;28;20419;-69
2021/05/18 05:34:40;;;;;;;14.32;12.95;;;13.00;99.90;;;;;;2063845;28;20057;-68
2021/05/18 05:35:41;;;;;;;15.15;13.13;;;13.00;99.90;;;;;;2063318;28;20018;-68
2021/05/18 05:36:42;;;;;;;15.35;13.77;;;13.00;99.90;;;;;;2063425;28;20026;-68
2021/05/18 05:37:42;;;;;;;16.15;13.95;;;13.00;99.90;;;;;;2063196;28;20023;-68
2021/05/18 05:38:44;;;;;;;15.38;13.00;;;13.00;99.90;;;;;;2063626;28;20100;-68
2021/05/18 05:39:44;;;;;;;16.40;14.07;;;13.00;99.90;;;;;;2063522;28;20027;-68
2021/05/18 05:40:45;;;;;;;13.73;12.27;;;13.00;99.90;;;;;;2063284;28;20038;-68
2021/05/18 05:41:45;;;;;;;17.83;12.40;;;13.00;99.90;;;;;;2063389;28;20431;-68
2021/05/18 05:42:46;;;;;;;12.98;11.48;;;13.00;99.90;;;;;;2063359;28;20980;-68
2021/05/18 05:43:47;;;;;;;13.02;11.73;;;13.00;99.90;;;;;;2063349;28;20034;-68
2021/05/18 05:44:48;;;;;;;12.68;11.18;;;13.00;99.90;;;;;;2063111;28;20421;-68
2021/05/18 05:45:51;;;;;;;12.13;10.88;;;13.00;99.90;;;;;;2063563;28;20381;-68
2021/05/18 05:46:52;;;;;;;11.70;10.55;;;13.00;99.90;;;;;;2063131;28;20027;-68
2021/05/18 05:47:52;;;;;;;12.40;10.95;;;13.00;99.90;;;;;;2063928;28;20144;-68
2021/05/18 05:48:53;;;;;;;12.02;10.82;;;13.00;99.90;;;;;;2063052;28;20363;-68
2021/05/18 05:49:55;;;;;;;12.80;11.40;;;13.00;99.90;;;;;;2063706;28;20041;-68
2021/05/18 05:50:55;;;;;;;12.65;11.35;;;13.00;99.90;;;;;;2063171;28;20033;-68
2021/05/18 05:51:56;;;;;;;12.55;11.25;;;13.00;99.90;;;;;;2063184;28;20030;-68
2021/05/18 05:52:57;;;;;;;14.82;11.60;;;13.00;99.90;;;;;;2062723;28;20018;-68
2021/05/18 05:53:59;;;;;;;14.65;11.82;;;13.00;99.90;;;;;;2063730;28;20375;-68
2021/05/18 05:55:00;;;;;;;13.32;11.95;;;13.00;99.90;;;;;;2063148;28;20023;-68
2021/05/18 05:56:00;;;;;;;13.50;12.13;;;13.10;99.90;;;;;;2062754;28;20073;-68
2021/05/18 05:57:01;;;;;;;14.13;12.80;;;13.10;99.90;;;;;;2056816;28;20050;-68
2021/05/18 05:58:02;;;;;;;13.30;12.10;;;13.10;99.90;;;;;;2055637;28;20022;-68
2021/05/18 05:59:05;;;;;;;13.07;11.77;;;13.10;99.90;;;;;;2055317;28;20070;-68
2021/05/18 06:00:08;;;;;;;13.73;12.35;;;13.10;99.90;;;;;;2055759;28;20015;-68
2021/05/18 06:01:09;;;;;;;13.93;12.23;;;13.10;99.90;;;;;;2055299;28;20023;-68
2021/05/18 06:02:10;;;;;;;14.55;13.07;;;13.10;99.90;;;;;;2054858;28;20054;-68
2021/05/18 06:03:10;;;;;;;14.85;13.15;;;13.10;99.90;;;;;;2054731;28;20058;-68
2021/05/18 06:04:11;;;;;;;13.38;12.07;;;13.10;99.90;;;;;;2055332;28;20022;-68
2021/05/18 06:05:12;;;;;;;15.27;13.77;;;13.10;99.90;;;;;;2055307;28;20023;-68
2021/05/18 06:06:13;;;;;;;15.00;13.45;;;13.20;99.90;;;;;;2055187;28;20435;-68
2021/05/18 06:07:13;;;;;;;13.88;12.48;;;13.20;99.90;;;;;;2055233;28;20053;-68
2021/05/18 06:08:14;;;;;;;14.80;13.27;;;13.20;99.90;;;;;;2062528;28;20031;-68
2021/05/18 06:09:15;;;;;;;15.50;13.73;;;13.20;99.90;;;;;;2062660;28;20048;-68
2021/05/18 06:10:38;;;;;;;15.43;13.48;;;13.20;99.90;;;;;;2055594;28;20398;-68
2021/05/18 06:13:18;;;;;;;14.93;11.98;;;13.20;99.90;;;;;;2054545;28;20035;-68
2021/05/18 06:16:10;;;;;;;11.52;10.35;;;13.10;99.90;;;;;;2054747;28;19913;-68
2021/05/18 06:37:17;;;;;;;11.40;9.90;;;13.10;99.90;;;;;;2050014;28;20031;-68
2021/05/18 06:41:13;;;;;;;13.23;11.93;;;13.10;99.90;;;;;;2060894;28;20019;-68
2021/05/18 06:42:38;;;;;;;13.52;12.10;;;13.20;99.90;;;;;;2062474;28;20105;-68
2021/05/18 06:47:31;;;;;;;13.73;12.40;;;13.20;99.90;;;;;;2062921;28;20085;-68
2021/05/18 06:48:31;;;;;;;13.80;12.32;;;13.20;99.90;;;;;;2062851;28;20034;-68
2021/05/18 06:49:37;;;;;;;14.20;12.80;;;13.20;99.90;;;;;;2063174;28;20026;-68
2021/05/18 06:50:38;;;;;;;14.82;13.27;;;13.20;99.90;;;;;;2062852;28;20486;-68
2021/05/18 06:51:38;;;;;;;15.57;13.25;;;13.30;99.90;;;;;;2063283;28;20269;-68
2021/05/18 06:52:40;;;;;;;17.02;13.77;;;13.30;99.90;;;;;;2062424;28;20037;-68
2021/05/18 06:53:41;;;;;;;15.30;13.85;;;13.30;99.90;;;;;;2063165;28;20113;-68
2021/05/18 06:54:41;;;;;;;14.55;13.15;;;13.30;99.90;;;;;;2062966;28;20034;-68
2021/05/18 06:55:42;;;;;;;14.35;12.88;;;13.40;99.90;;;;;;2062887;28;20030;-68
2021/05/18 06:56:45;;;;;;;14.32;13.00;;;13.40;99.90;;;;;;2063032;28;20124;-68
2021/05/18 06:57:48;;;;;;;15.07;13.65;;;13.40;99.90;;;;;;2063122;28;20022;-68
2021/05/18 07:00:09;;;;;;;15.65;14.10;;;13.50;99.90;;;;;;2063259;28;20026;-68
2021/05/18 07:01:09;;;;;;;15.57;13.98;;;13.50;99.90;;;;;;2062730;28;20022;-68
2021/05/18 07:02:10;;;;;;;14.65;13.23;;;13.50;99.90;;;;;;2062428;28;20026;-68
2021/05/18 07:03:13;;;;;;;15.18;13.57;;;13.60;99.90;;;;;;2062379;28;20035;-68
2021/05/18 07:04:15;;;;;;;16.42;14.70;;;13.60;99.90;;;;;;2063098;28;20034;-68
2021/05/18 07:05:18;;;;;;;15.68;14.30;;;13.70;99.90;;;;;;2063057;28;20089;-68
2021/05/18 07:07:06;;;;;;;15.75;14.30;;;13.70;99.90;;;;;;2063389;28;20038;-68
2021/05/18 07:07:44;;;;;;;16.05;14.45;;;13.80;99.90;;;;;;2059887;28;20477;-68
2021/05/18 07:09:45;;;;;;;16.63;15.05;;;13.90;99.90;;;;;;2062780;28;20073;-68
2021/05/18 07:10:47;;;;;;;16.02;14.52;;;13.90;99.90;;;;;;2062842;28;20034;-68
2021/05/18 07:11:47;;;;;;;16.55;14.95;;;13.90;99.90;;;;;;2062802;28;20034;-68
2021/05/18 07:12:48;;;;;;;17.10;15.40;;;14.00;99.90;;;;;;2062306;28;20053;-68
2021/05/18 07:13:49;;;;;;;15.50;14.00;;;14.00;99.90;;;;;;2062802;28;20108;-68
2021/05/18 07:14:49;;;;;;;15.90;14.30;;;14.00;99.90;;;;;;2062993;28;20474;-68
2021/05/18 07:15:50;;;;;;;15.75;14.20;;;14.00;99.90;;;;;;2062861;28;20058;-68
2021/05/18 07:16:50;;;;;;;15.52;13.98;;;14.00;99.90;;;;;;2063065;28;20228;-68
2021/05/18 07:17:51;;;;;;;16.17;14.48;;;14.00;99.90;;;;;;2062808;28;20038;-68
2021/05/18 07:18:51;;;;;;;15.98;14.18;;;13.90;99.90;;;;;;2063110;28;20053;-68
2021/05/18 07:19:52;;;;;;;16.15;14.63;;;14.00;99.90;;;;;;2062539;28;20462;-68
2021/05/18 07:20:53;;;;;;;16.45;14.77;;;13.90;99.90;;;;;;2062989;28;20026;-68